sensor_id;sensor_type;location;lat;lon;timestamp;temperature;humidity
69382;DHT22;56560;50.692;12.844;2023-11-22T00:01:51;2.50;79.00
69382;DHT22;56560;50.692;12.844;2023-11-22T00:04:16;2.40;79.50
69382;DHT22;56560;50.692;12.844;2023-11-22T00:06:43;2.30;79.80
69382;DHT22;56560;50.692;12.844;2023-11-22T00:09:08;2.20;81.50
69382;DHT22;56560;50.692;12.844;2023-11-22T00:11:35;2.30;82.00
69382;DHT22;56560;50.692;12.844;2023-11-22T00:14:00;2.40;80.40
69382;DHT22;56560;50.692;12.844;2023-11-22T00:16:26;2.40;81.60
69382;DHT22;56560;50.692;12.844;2023-11-22T00:18:52;2.40;81.00
69382;DHT22;56560;50.692;12.844;2023-11-22T00:21:18;2.30;81.80
69382;DHT22;56560;50.692;12.844;2023-11-22T00:23:45;2.30;82.80
69382;DHT22;56560;50.692;12.844;2023-11-22T00:26:12;2.40;82.70
69382;DHT22;56560;50.692;12.844;2023-11-22T00:28:38;2.40;81.90
69382;DHT22;56560;50.692;12.844;2023-11-22T00:31:03;2.40;81.70
69382;DHT22;56560;50.692;12.844;2023-11-22T00:33:29;2.40;81.80
69382;DHT22;56560;50.692;12.844;2023-11-22T00:35:57;2.40;82.00
69382;DHT22;56560;50.692;12.844;2023-11-22T00:38:23;2.50;81.30
69382;DHT22;56560;50.692;12.844;2023-11-22T00:40:49;2.40;79.10
69382;DHT22;56560;50.692;12.844;2023-11-22T00:43:15;2.20;78.90
69382;DHT22;56560;50.692;12.844;2023-11-22T00:45:41;2.10;79.50
69382;DHT22;56560;50.692;12.844;2023-11-22T00:48:07;2.10;80.30
69382;DHT22;56560;50.692;12.844;2023-11-22T00:50:32;2.10;80.60
69382;DHT22;56560;50.692;12.844;2023-11-22T00:52:58;2.10;80.40
69382;DHT22;56560;50.692;12.844;2023-11-22T00:55:24;2.10;79.60
69382;DHT22;56560;50.692;12.844;2023-11-22T00:57:49;2.00;79.80
69382;DHT22;56560;50.692;12.844;2023-11-22T01:00:15;1.90;80.30
69382;DHT22;56560;50.692;12.844;2023-11-22T01:02:41;2.00;80.90
69382;DHT22;56560;50.692;12.844;2023-11-22T01:05:10;2.10;81.10
69382;DHT22;56560;50.692;12.844;2023-11-22T01:07:37;2.20;81.40
69382;DHT22;56560;50.692;12.844;2023-11-22T01:10:03;2.30;81.30
69382;DHT22;56560;50.692;12.844;2023-11-22T01:12:29;2.40;80.10
69382;DHT22;56560;50.692;12.844;2023-11-22T01:14:54;2.40;80.10
69382;DHT22;56560;50.692;12.844;2023-11-22T01:17:20;2.40;79.20
69382;DHT22;56560;50.692;12.844;2023-11-22T01:19:45;2.40;80.60
69382;DHT22;56560;50.692;12.844;2023-11-22T01:22:11;2.50;79.10
69382;DHT22;56560;50.692;12.844;2023-11-22T01:24:37;2.50;79.60
69382;DHT22;56560;50.692;12.844;2023-11-22T01:27:03;2.50;79.00
69382;DHT22;56560;50.692;12.844;2023-11-22T01:29:29;2.50;78.60
69382;DHT22;56560;50.692;12.844;2023-11-22T01:31:54;2.50;76.70
69382;DHT22;56560;50.692;12.844;2023-11-22T01:34:21;2.40;77.90
69382;DHT22;56560;50.692;12.844;2023-11-22T01:36:49;2.40;77.80
69382;DHT22;56560;50.692;12.844;2023-11-22T01:39:15;2.40;78.30
69382;DHT22;56560;50.692;12.844;2023-11-22T01:41:44;2.40;77.70
69382;DHT22;56560;50.692;12.844;2023-11-22T01:44:09;2.50;78.60
69382;DHT22;56560;50.692;12.844;2023-11-22T01:46:35;2.50;77.90
69382;DHT22;56560;50.692;12.844;2023-11-22T01:49:00;2.50;77.20
69382;DHT22;56560;50.692;12.844;2023-11-22T01:51:27;2.30;77.60
69382;DHT22;56560;50.692;12.844;2023-11-22T01:53:54;2.30;79.40
69382;DHT22;56560;50.692;12.844;2023-11-22T01:56:23;2.30;78.70
69382;DHT22;56560;50.692;12.844;2023-11-22T01:58:49;2.40;78.90
69382;DHT22;56560;50.692;12.844;2023-11-22T02:01:15;2.40;78.80
69382;DHT22;56560;50.692;12.844;2023-11-22T02:03:41;2.30;79.40
69382;DHT22;56560;50.692;12.844;2023-11-22T02:06:08;2.30;80.20
69382;DHT22;56560;50.692;12.844;2023-11-22T02:08:35;2.30;79.50
69382;DHT22;56560;50.692;12.844;2023-11-22T02:11:01;2.30;80.90
69382;DHT22;56560;50.692;12.844;2023-11-22T02:13:30;2.30;80.50
69382;DHT22;56560;50.692;12.844;2023-11-22T02:15:55;2.20;78.90
69382;DHT22;56560;50.692;12.844;2023-11-22T02:18:27;2.20;80.40
69382;DHT22;56560;50.692;12.844;2023-11-22T02:20:53;2.30;80.00
69382;DHT22;56560;50.692;12.844;2023-11-22T02:23:18;2.30;78.80
69382;DHT22;56560;50.692;12.844;2023-11-22T02:25:44;2.40;79.20
69382;DHT22;56560;50.692;12.844;2023-11-22T02:28:13;2.40;78.60
69382;DHT22;56560;50.692;12.844;2023-11-22T02:30:39;2.50;78.50
69382;DHT22;56560;50.692;12.844;2023-11-22T02:33:05;2.50;77.80
69382;DHT22;56560;50.692;12.844;2023-11-22T02:35:31;2.40;77.70
69382;DHT22;56560;50.692;12.844;2023-11-22T02:37:58;2.40;78.60
69382;DHT22;56560;50.692;12.844;2023-11-22T02:40:24;2.50;77.90
69382;DHT22;56560;50.692;12.844;2023-11-22T02:42:52;2.40;77.60
69382;DHT22;56560;50.692;12.844;2023-11-22T02:45:20;2.40;76.80
69382;DHT22;56560;50.692;12.844;2023-11-22T02:47:48;2.30;76.90
69382;DHT22;56560;50.692;12.844;2023-11-22T02:50:18;2.20;77.80
69382;DHT22;56560;50.692;12.844;2023-11-22T02:52:43;2.20;76.80
69382;DHT22;56560;50.692;12.844;2023-11-22T02:55:09;2.20;77.90
69382;DHT22;56560;50.692;12.844;2023-11-22T02:57:36;2.30;78.60
69382;DHT22;56560;50.692;12.844;2023-11-22T03:00:03;2.30;76.70
69382;DHT22;56560;50.692;12.844;2023-11-22T03:02:30;2.20;77.00
69382;DHT22;56560;50.692;12.844;2023-11-22T03:04:57;2.20;78.10
69382;DHT22;56560;50.692;12.844;2023-11-22T03:07:24;2.10;77.80
69382;DHT22;56560;50.692;12.844;2023-11-22T03:09:50;2.10;76.80
69382;DHT22;56560;50.692;12.844;2023-11-22T03:12:16;1.90;77.20
69382;DHT22;56560;50.692;12.844;2023-11-22T03:14:43;1.70;78.90
69382;DHT22;56560;50.692;12.844;2023-11-22T03:17:09;1.70;78.90
69382;DHT22;56560;50.692;12.844;2023-11-22T03:19:34;1.70;79.60
69382;DHT22;56560;50.692;12.844;2023-11-22T03:22:01;1.80;80.70
69382;DHT22;56560;50.692;12.844;2023-11-22T03:24:29;1.80;80.10
69382;DHT22;56560;50.692;12.844;2023-11-22T03:26:55;1.90;79.60
69382;DHT22;56560;50.692;12.844;2023-11-22T03:29:24;1.90;78.90
69382;DHT22;56560;50.692;12.844;2023-11-22T03:31:50;1.90;79.70
69382;DHT22;56560;50.692;12.844;2023-11-22T03:34:18;1.90;79.70
69382;DHT22;56560;50.692;12.844;2023-11-22T03:36:43;1.80;78.70
69382;DHT22;56560;50.692;12.844;2023-11-22T03:39:09;1.80;80.80
69382;DHT22;56560;50.692;12.844;2023-11-22T03:41:36;1.90;80.60
69382;DHT22;56560;50.692;12.844;2023-11-22T03:44:03;2.00;80.00
69382;DHT22;56560;50.692;12.844;2023-11-22T03:46:29;2.00;77.70
69382;DHT22;56560;50.692;12.844;2023-11-22T03:48:55;2.00;78.50
69382;DHT22;56560;50.692;12.844;2023-11-22T03:51:21;2.00;77.50
69382;DHT22;56560;50.692;12.844;2023-11-22T03:53:47;2.00;77.50
69382;DHT22;56560;50.692;12.844;2023-11-22T03:56:13;2.10;77.20
69382;DHT22;56560;50.692;12.844;2023-11-22T03:58:40;2.00;76.70
69382;DHT22;56560;50.692;12.844;2023-11-22T04:01:05;2.00;77.30
69382;DHT22;56560;50.692;12.844;2023-11-22T04:03:31;2.10;77.30
69382;DHT22;56560;50.692;12.844;2023-11-22T04:05:57;2.20;76.50
69382;DHT22;56560;50.692;12.844;2023-11-22T04:08:23;2.20;76.70
69382;DHT22;56560;50.692;12.844;2023-11-22T04:10:49;2.30;76.90
69382;DHT22;56560;50.692;12.844;2023-11-22T04:13:15;2.30;76.00
69382;DHT22;56560;50.692;12.844;2023-11-22T04:15:41;2.20;75.60
69382;DHT22;56560;50.692;12.844;2023-11-22T04:18:07;2.00;75.90
69382;DHT22;56560;50.692;12.844;2023-11-22T04:20:32;1.80;77.10
69382;DHT22;56560;50.692;12.844;2023-11-22T04:22:58;1.80;77.20
69382;DHT22;56560;50.692;12.844;2023-11-22T04:25:24;1.90;77.80
69382;DHT22;56560;50.692;12.844;2023-11-22T04:27:49;2.00;76.40
69382;DHT22;56560;50.692;12.844;2023-11-22T04:30:15;1.90;75.70
69382;DHT22;56560;50.692;12.844;2023-11-22T04:32:43;1.70;77.00
69382;DHT22;56560;50.692;12.844;2023-11-22T04:35:09;1.70;78.40
69382;DHT22;56560;50.692;12.844;2023-11-22T04:37:36;1.80;76.90
69382;DHT22;56560;50.692;12.844;2023-11-22T04:40:01;1.70;76.50
69382;DHT22;56560;50.692;12.844;2023-11-22T04:42:29;1.60;77.80
69382;DHT22;56560;50.692;12.844;2023-11-22T04:44:54;1.70;77.20
69382;DHT22;56560;50.692;12.844;2023-11-22T04:47:20;1.60;78.20
69382;DHT22;56560;50.692;12.844;2023-11-22T04:49:49;1.70;77.60
69382;DHT22;56560;50.692;12.844;2023-11-22T04:52:14;1.70;77.90
69382;DHT22;56560;50.692;12.844;2023-11-22T04:54:40;1.80;77.40
69382;DHT22;56560;50.692;12.844;2023-11-22T04:57:07;1.80;76.90
69382;DHT22;56560;50.692;12.844;2023-11-22T04:59:32;1.80;76.90
69382;DHT22;56560;50.692;12.844;2023-11-22T05:01:58;1.80;78.10
69382;DHT22;56560;50.692;12.844;2023-11-22T05:04:24;1.90;76.70
69382;DHT22;56560;50.692;12.844;2023-11-22T05:06:52;1.80;77.50
69382;DHT22;56560;50.692;12.844;2023-11-22T05:09:17;1.90;77.70
69382;DHT22;56560;50.692;12.844;2023-11-22T05:11:43;1.90;77.40
69382;DHT22;56560;50.692;12.844;2023-11-22T05:14:10;1.90;77.40
69382;DHT22;56560;50.692;12.844;2023-11-22T05:16:36;2.00;77.30
69382;DHT22;56560;50.692;12.844;2023-11-22T05:19:02;1.90;77.00
69382;DHT22;56560;50.692;12.844;2023-11-22T05:21:27;1.90;77.70
69382;DHT22;56560;50.692;12.844;2023-11-22T05:23:53;1.90;77.80
69382;DHT22;56560;50.692;12.844;2023-11-22T05:26:20;1.90;76.80
69382;DHT22;56560;50.692;12.844;2023-11-22T05:28:46;1.90;77.10
69382;DHT22;56560;50.692;12.844;2023-11-22T05:31:13;1.80;77.30
69382;DHT22;56560;50.692;12.844;2023-11-22T05:33:38;1.80;76.70
69382;DHT22;56560;50.692;12.844;2023-11-22T05:36:06;1.80;77.90
69382;DHT22;56560;50.692;12.844;2023-11-22T05:38:31;1.80;77.50
69382;DHT22;56560;50.692;12.844;2023-11-22T05:40:59;1.90;77.30
69382;DHT22;56560;50.692;12.844;2023-11-22T05:43:25;1.90;77.00
69382;DHT22;56560;50.692;12.844;2023-11-22T05:45:53;2.00;76.10
69382;DHT22;56560;50.692;12.844;2023-11-22T05:48:18;2.00;75.80
69382;DHT22;56560;50.692;12.844;2023-11-22T05:50:45;2.00;75.00
69382;DHT22;56560;50.692;12.844;2023-11-22T05:53:11;1.80;76.00
69382;DHT22;56560;50.692;12.844;2023-11-22T05:55:36;1.70;75.90
69382;DHT22;56560;50.692;12.844;2023-11-22T05:58:03;1.60;76.20
69382;DHT22;56560;50.692;12.844;2023-11-22T06:00:29;1.50;77.40
69382;DHT22;56560;50.692;12.844;2023-11-22T06:02:54;1.50;77.90
69382;DHT22;56560;50.692;12.844;2023-11-22T06:05:21;1.50;77.80
69382;DHT22;56560;50.692;12.844;2023-11-22T06:07:47;1.60;76.50
69382;DHT22;56560;50.692;12.844;2023-11-22T06:10:13;1.70;76.80
69382;DHT22;56560;50.692;12.844;2023-11-22T06:12:39;1.70;77.00
69382;DHT22;56560;50.692;12.844;2023-11-22T06:15:05;1.80;76.20
69382;DHT22;56560;50.692;12.844;2023-11-22T06:17:31;1.70;76.80
69382;DHT22;56560;50.692;12.844;2023-11-22T06:19:57;1.70;77.60
69382;DHT22;56560;50.692;12.844;2023-11-22T06:22:22;1.80;77.30
69382;DHT22;56560;50.692;12.844;2023-11-22T06:24:48;1.80;77.20
69382;DHT22;56560;50.692;12.844;2023-11-22T06:27:14;1.70;75.70
69382;DHT22;56560;50.692;12.844;2023-11-22T06:29:43;1.60;76.40
69382;DHT22;56560;50.692;12.844;2023-11-22T06:32:12;1.60;77.20
69382;DHT22;56560;50.692;12.844;2023-11-22T06:34:38;1.70;77.10
69382;DHT22;56560;50.692;12.844;2023-11-22T06:37:03;1.60;75.60
69382;DHT22;56560;50.692;12.844;2023-11-22T06:39:29;1.50;76.10
69382;DHT22;56560;50.692;12.844;2023-11-22T06:41:56;1.40;77.10
69382;DHT22;56560;50.692;12.844;2023-11-22T06:44:21;1.50;77.40
69382;DHT22;56560;50.692;12.844;2023-11-22T06:46:48;1.60;77.80
69382;DHT22;56560;50.692;12.844;2023-11-22T06:49:13;1.70;77.00
69382;DHT22;56560;50.692;12.844;2023-11-22T06:51:39;1.70;76.80
69382;DHT22;56560;50.692;12.844;2023-11-22T06:54:05;1.80;76.60
69382;DHT22;56560;50.692;12.844;2023-11-22T06:56:32;1.80;76.90
69382;DHT22;56560;50.692;12.844;2023-11-22T06:58:58;1.90;76.30
69382;DHT22;56560;50.692;12.844;2023-11-22T07:01:24;1.90;76.00
69382;DHT22;56560;50.692;12.844;2023-11-22T07:03:52;1.90;75.60
69382;DHT22;56560;50.692;12.844;2023-11-22T07:06:18;1.90;75.50
69382;DHT22;56560;50.692;12.844;2023-11-22T07:08:47;1.80;75.40
69382;DHT22;56560;50.692;12.844;2023-11-22T07:11:21;1.70;76.70
69382;DHT22;56560;50.692;12.844;2023-11-22T07:13:46;1.70;76.30
69382;DHT22;56560;50.692;12.844;2023-11-22T07:16:13;1.50;76.90
69382;DHT22;56560;50.692;12.844;2023-11-22T07:18:40;1.60;77.50
69382;DHT22;56560;50.692;12.844;2023-11-22T07:21:06;1.60;77.00
69382;DHT22;56560;50.692;12.844;2023-11-22T07:23:31;1.80;77.70
69382;DHT22;56560;50.692;12.844;2023-11-22T07:25:57;1.80;76.10
69382;DHT22;56560;50.692;12.844;2023-11-22T07:28:23;1.90;76.90
69382;DHT22;56560;50.692;12.844;2023-11-22T07:30:49;1.90;75.40
69382;DHT22;56560;50.692;12.844;2023-11-22T07:33:17;1.90;76.80
69382;DHT22;56560;50.692;12.844;2023-11-22T07:35:46;2.00;76.10
69382;DHT22;56560;50.692;12.844;2023-11-22T07:38:11;1.90;74.80
69382;DHT22;56560;50.692;12.844;2023-11-22T07:40:37;1.70;74.70
69382;DHT22;56560;50.692;12.844;2023-11-22T07:43:03;1.60;76.40
69382;DHT22;56560;50.692;12.844;2023-11-22T07:45:31;1.60;77.00
69382;DHT22;56560;50.692;12.844;2023-11-22T07:47:57;1.60;75.40
69382;DHT22;56560;50.692;12.844;2023-11-22T07:50:27;1.60;76.80
69382;DHT22;56560;50.692;12.844;2023-11-22T07:52:53;1.60;76.00
69382;DHT22;56560;50.692;12.844;2023-11-22T07:55:18;1.60;76.10
69382;DHT22;56560;50.692;12.844;2023-11-22T07:57:45;1.60;76.20
69382;DHT22;56560;50.692;12.844;2023-11-22T08:00:11;1.70;76.50
69382;DHT22;56560;50.692;12.844;2023-11-22T08:02:38;1.80;76.50
69382;DHT22;56560;50.692;12.844;2023-11-22T08:05:08;1.90;76.10
69382;DHT22;56560;50.692;12.844;2023-11-22T08:07:37;2.00;75.60
69382;DHT22;56560;50.692;12.844;2023-11-22T08:10:07;2.00;75.30
69382;DHT22;56560;50.692;12.844;2023-11-22T08:12:53;2.10;75.30
69382;DHT22;56560;50.692;12.844;2023-11-22T08:15:18;2.10;75.20
69382;DHT22;56560;50.692;12.844;2023-11-22T08:17:45;2.10;74.10
69382;DHT22;56560;50.692;12.844;2023-11-22T08:20:11;1.90;73.80
69382;DHT22;56560;50.692;12.844;2023-11-22T08:22:42;1.90;76.00
69382;DHT22;56560;50.692;12.844;2023-11-22T08:25:08;2.00;75.30
69382;DHT22;56560;50.692;12.844;2023-11-22T08:27:40;2.00;75.10
69382;DHT22;56560;50.692;12.844;2023-11-22T08:30:08;2.00;74.90
69382;DHT22;56560;50.692;12.844;2023-11-22T08:32:45;2.10;74.40
69382;DHT22;56560;50.692;12.844;2023-11-22T08:35:13;2.00;74.00
69382;DHT22;56560;50.692;12.844;2023-11-22T08:37:41;2.00;74.00
69382;DHT22;56560;50.692;12.844;2023-11-22T08:40:10;1.90;74.60
69382;DHT22;56560;50.692;12.844;2023-11-22T08:42:49;2.00;73.50
69382;DHT22;56560;50.692;12.844;2023-11-22T08:45:15;1.90;73.00
69382;DHT22;56560;50.692;12.844;2023-11-22T08:47:41;2.00;74.00
69382;DHT22;56560;50.692;12.844;2023-11-22T08:50:08;2.00;73.30
69382;DHT22;56560;50.692;12.844;2023-11-22T08:52:39;2.00;73.30
69382;DHT22;56560;50.692;12.844;2023-11-22T08:55:07;2.10;73.20
69382;DHT22;56560;50.692;12.844;2023-11-22T08:57:37;2.20;72.80
69382;DHT22;56560;50.692;12.844;2023-11-22T09:00:03;2.30;72.30
69382;DHT22;56560;50.692;12.844;2023-11-22T09:02:33;2.40;72.00
69382;DHT22;56560;50.692;12.844;2023-11-22T09:04:59;2.50;71.50
69382;DHT22;56560;50.692;12.844;2023-11-22T09:07:25;2.40;71.70
69382;DHT22;56560;50.692;12.844;2023-11-22T09:09:51;2.50;71.50
69382;DHT22;56560;50.692;12.844;2023-11-22T09:12:17;2.50;71.30
69382;DHT22;56560;50.692;12.844;2023-11-22T09:14:45;2.50;70.80
69382;DHT22;56560;50.692;12.844;2023-11-22T09:17:11;2.50;71.40
69382;DHT22;56560;50.692;12.844;2023-11-22T09:19:37;2.60;70.80
69382;DHT22;56560;50.692;12.844;2023-11-22T09:22:03;2.60;70.40
69382;DHT22;56560;50.692;12.844;2023-11-22T09:24:32;2.70;70.40
69382;DHT22;56560;50.692;12.844;2023-11-22T09:26:57;2.70;70.20
69382;DHT22;56560;50.692;12.844;2023-11-22T09:29:23;2.80;69.90
69382;DHT22;56560;50.692;12.844;2023-11-22T09:31:48;2.80;69.70
69382;DHT22;56560;50.692;12.844;2023-11-22T09:34:17;2.70;69.10
69382;DHT22;56560;50.692;12.844;2023-11-22T09:36:43;2.70;69.60
69382;DHT22;56560;50.692;12.844;2023-11-22T09:39:09;2.70;70.10
69382;DHT22;56560;50.692;12.844;2023-11-22T09:41:35;2.80;69.40
69382;DHT22;56560;50.692;12.844;2023-11-22T09:44:01;2.80;69.60
69382;DHT22;56560;50.692;12.844;2023-11-22T09:46:27;2.80;69.40
69382;DHT22;56560;50.692;12.844;2023-11-22T09:48:56;2.70;69.20
69382;DHT22;56560;50.692;12.844;2023-11-22T09:51:29;2.70;70.50
69382;DHT22;56560;50.692;12.844;2023-11-22T09:53:57;2.70;70.40
69382;DHT22;56560;50.692;12.844;2023-11-22T09:56:24;2.80;70.80
69382;DHT22;56560;50.692;12.844;2023-11-22T09:58:55;2.80;70.40
69382;DHT22;56560;50.692;12.844;2023-11-22T10:01:22;2.80;70.80
69382;DHT22;56560;50.692;12.844;2023-11-22T10:03:48;2.80;70.80
69382;DHT22;56560;50.692;12.844;2023-11-22T10:06:14;2.80;71.40
69382;DHT22;56560;50.692;12.844;2023-11-22T10:08:43;2.80;71.10
69382;DHT22;56560;50.692;12.844;2023-11-22T10:11:16;2.90;71.30
69382;DHT22;56560;50.692;12.844;2023-11-22T10:13:51;2.90;71.20
69382;DHT22;56560;50.692;12.844;2023-11-22T10:16:18;2.90;71.70
69382;DHT22;56560;50.692;12.844;2023-11-22T10:18:46;2.80;70.70
69382;DHT22;56560;50.692;12.844;2023-11-22T10:21:23;2.70;71.60
69382;DHT22;56560;50.692;12.844;2023-11-22T10:23:53;2.60;72.60
69382;DHT22;56560;50.692;12.844;2023-11-22T10:26:19;2.60;73.10
69382;DHT22;56560;50.692;12.844;2023-11-22T10:28:45;2.70;72.70
69382;DHT22;56560;50.692;12.844;2023-11-22T10:31:11;2.70;72.20
69382;DHT22;56560;50.692;12.844;2023-11-22T10:33:41;2.80;71.70
69382;DHT22;56560;50.692;12.844;2023-11-22T10:36:07;2.80;71.40
69382;DHT22;56560;50.692;12.844;2023-11-22T10:38:34;2.80;72.10
69382;DHT22;56560;50.692;12.844;2023-11-22T10:41:06;2.80;72.40
69382;DHT22;56560;50.692;12.844;2023-11-22T10:43:34;2.90;72.30
69382;DHT22;56560;50.692;12.844;2023-11-22T10:46:02;2.90;71.20
69382;DHT22;56560;50.692;12.844;2023-11-22T10:48:28;2.80;71.80
69382;DHT22;56560;50.692;12.844;2023-11-22T10:50:56;2.90;71.90
69382;DHT22;56560;50.692;12.844;2023-11-22T10:53:34;2.80;70.50
69382;DHT22;56560;50.692;12.844;2023-11-22T10:56:11;2.60;72.30
69382;DHT22;56560;50.692;12.844;2023-11-22T10:58:43;2.60;71.60
69382;DHT22;56560;50.692;12.844;2023-11-22T11:01:12;2.50;72.00
69382;DHT22;56560;50.692;12.844;2023-11-22T11:03:40;2.40;71.90
69382;DHT22;56560;50.692;12.844;2023-11-22T11:06:10;2.30;73.30
69382;DHT22;56560;50.692;12.844;2023-11-22T11:08:39;2.30;73.60
69382;DHT22;56560;50.692;12.844;2023-11-22T11:11:05;2.40;73.10
69382;DHT22;56560;50.692;12.844;2023-11-22T11:13:31;2.50;72.50
69382;DHT22;56560;50.692;12.844;2023-11-22T11:15:58;2.60;72.20
69382;DHT22;56560;50.692;12.844;2023-11-22T11:18:25;2.60;72.40
69382;DHT22;56560;50.692;12.844;2023-11-22T11:20:55;2.70;72.20
69382;DHT22;56560;50.692;12.844;2023-11-22T11:23:23;2.70;71.80
69382;DHT22;56560;50.692;12.844;2023-11-22T11:25:57;2.80;70.30
69382;DHT22;56560;50.692;12.844;2023-11-22T11:28:25;2.70;71.30
69382;DHT22;56560;50.692;12.844;2023-11-22T11:30:52;2.70;70.90
69382;DHT22;56560;50.692;12.844;2023-11-22T11:33:34;2.60;71.30
69382;DHT22;56560;50.692;12.844;2023-11-22T11:36:02;2.50;72.00
69382;DHT22;56560;50.692;12.844;2023-11-22T11:38:36;2.70;71.60
69382;DHT22;56560;50.692;12.844;2023-11-22T11:41:09;2.70;71.30
69382;DHT22;56560;50.692;12.844;2023-11-22T11:43:40;2.80;71.10
69382;DHT22;56560;50.692;12.844;2023-11-22T11:46:10;2.90;70.90
69382;DHT22;56560;50.692;12.844;2023-11-22T11:48:36;2.90;70.40
69382;DHT22;56560;50.692;12.844;2023-11-22T11:51:02;2.80;69.20
69382;DHT22;56560;50.692;12.844;2023-11-22T11:53:28;2.70;70.80
69382;DHT22;56560;50.692;12.844;2023-11-22T11:55:56;2.70;71.60
69382;DHT22;56560;50.692;12.844;2023-11-22T11:58:22;2.80;70.50
69382;DHT22;56560;50.692;12.844;2023-11-22T12:00:51;2.80;69.80
69382;DHT22;56560;50.692;12.844;2023-11-22T12:03:18;2.80;70.30
69382;DHT22;56560;50.692;12.844;2023-11-22T12:05:47;2.90;70.00
69382;DHT22;56560;50.692;12.844;2023-11-22T12:08:14;3.00;69.30
69382;DHT22;56560;50.692;12.844;2023-11-22T12:10:44;3.00;69.10
69382;DHT22;56560;50.692;12.844;2023-11-22T12:13:17;2.90;69.00
69382;DHT22;56560;50.692;12.844;2023-11-22T12:15:43;2.90;69.60
69382;DHT22;56560;50.692;12.844;2023-11-22T12:18:10;3.00;69.60
69382;DHT22;56560;50.692;12.844;2023-11-22T12:20:38;3.00;69.30
69382;DHT22;56560;50.692;12.844;2023-11-22T12:23:04;3.00;68.90
69382;DHT22;56560;50.692;12.844;2023-11-22T12:25:30;2.90;69.00
69382;DHT22;56560;50.692;12.844;2023-11-22T12:27:56;2.80;69.60
69382;DHT22;56560;50.692;12.844;2023-11-22T12:30:35;2.70;70.40
69382;DHT22;56560;50.692;12.844;2023-11-22T12:33:05;2.70;70.80
69382;DHT22;56560;50.692;12.844;2023-11-22T12:35:33;2.80;70.10
69382;DHT22;56560;50.692;12.844;2023-11-22T12:38:04;2.70;69.20
69382;DHT22;56560;50.692;12.844;2023-11-22T12:40:31;2.50;70.50
69382;DHT22;56560;50.692;12.844;2023-11-22T12:42:57;2.40;70.60
69382;DHT22;56560;50.692;12.844;2023-11-22T12:45:24;2.50;71.10
69382;DHT22;56560;50.692;12.844;2023-11-22T12:47:51;2.60;70.70
69382;DHT22;56560;50.692;12.844;2023-11-22T12:50:37;2.60;70.50
69382;DHT22;56560;50.692;12.844;2023-11-22T12:53:16;2.70;70.20
69382;DHT22;56560;50.692;12.844;2023-11-22T12:55:43;2.80;69.90
69382;DHT22;56560;50.692;12.844;2023-11-22T12:58:14;2.80;69.60
69382;DHT22;56560;50.692;12.844;2023-11-22T13:00:48;2.80;69.50
69382;DHT22;56560;50.692;12.844;2023-11-22T13:03:13;2.90;71.30
69382;DHT22;56560;50.692;12.844;2023-11-22T13:05:43;2.90;69.10
69382;DHT22;56560;50.692;12.844;2023-11-22T13:08:10;2.60;69.60
69382;DHT22;56560;50.692;12.844;2023-11-22T13:10:49;2.40;70.40
69382;DHT22;56560;50.692;12.844;2023-11-22T13:13:23;2.40;71.10
69382;DHT22;56560;50.692;12.844;2023-11-22T13:15:49;2.50;70.90
69382;DHT22;56560;50.692;12.844;2023-11-22T13:18:16;2.60;70.70
69382;DHT22;56560;50.692;12.844;2023-11-22T13:20:42;2.80;70.10
69382;DHT22;56560;50.692;12.844;2023-11-22T13:23:08;2.80;69.70
69382;DHT22;56560;50.692;12.844;2023-11-22T13:25:34;2.70;69.70
69382;DHT22;56560;50.692;12.844;2023-11-22T13:28:00;2.70;70.50
69382;DHT22;56560;50.692;12.844;2023-11-22T13:30:26;2.70;70.40
69382;DHT22;56560;50.692;12.844;2023-11-22T13:32:53;2.70;70.30
69382;DHT22;56560;50.692;12.844;2023-11-22T13:35:22;2.80;69.90
69382;DHT22;56560;50.692;12.844;2023-11-22T13:37:48;2.80;70.50
69382;DHT22;56560;50.692;12.844;2023-11-22T13:40:19;2.90;70.60
69382;DHT22;56560;50.692;12.844;2023-11-22T13:42:51;2.90;70.50
69382;DHT22;56560;50.692;12.844;2023-11-22T13:45:20;3.00;70.00
69382;DHT22;56560;50.692;12.844;2023-11-22T13:47:50;3.10;69.70
69382;DHT22;56560;50.692;12.844;2023-11-22T13:50:18;3.00;69.70
69382;DHT22;56560;50.692;12.844;2023-11-22T13:52:47;3.10;69.70
69382;DHT22;56560;50.692;12.844;2023-11-22T13:55:14;3.10;69.80
69382;DHT22;56560;50.692;12.844;2023-11-22T13:57:41;2.90;69.60
69382;DHT22;56560;50.692;12.844;2023-11-22T14:00:08;2.80;70.60
69382;DHT22;56560;50.692;12.844;2023-11-22T14:02:36;2.80;70.90
69382;DHT22;56560;50.692;12.844;2023-11-22T14:05:02;2.90;70.80
69382;DHT22;56560;50.692;12.844;2023-11-22T14:07:33;2.90;70.60
69382;DHT22;56560;50.692;12.844;2023-11-22T14:09:59;2.90;69.90
69382;DHT22;56560;50.692;12.844;2023-11-22T14:12:25;2.80;70.10
69382;DHT22;56560;50.692;12.844;2023-11-22T14:14:51;2.80;70.60
69382;DHT22;56560;50.692;12.844;2023-11-22T14:17:17;2.80;70.80
69382;DHT22;56560;50.692;12.844;2023-11-22T14:19:46;2.70;70.50
69382;DHT22;56560;50.692;12.844;2023-11-22T14:22:12;2.60;70.40
69382;DHT22;56560;50.692;12.844;2023-11-22T14:24:39;2.50;71.20
69382;DHT22;56560;50.692;12.844;2023-11-22T14:27:05;2.60;71.10
69382;DHT22;56560;50.692;12.844;2023-11-22T14:29:31;2.60;71.00
69382;DHT22;56560;50.692;12.844;2023-11-22T14:31:58;2.50;70.80
69382;DHT22;56560;50.692;12.844;2023-11-22T14:34:24;2.30;71.40
69382;DHT22;56560;50.692;12.844;2023-11-22T14:36:49;2.10;73.00
69382;DHT22;56560;50.692;12.844;2023-11-22T14:39:15;2.20;73.40
69382;DHT22;56560;50.692;12.844;2023-11-22T14:41:41;2.30;72.70
69382;DHT22;56560;50.692;12.844;2023-11-22T14:44:06;2.40;72.20
69382;DHT22;56560;50.692;12.844;2023-11-22T14:46:34;2.30;72.50
69382;DHT22;56560;50.692;12.844;2023-11-22T14:49:02;2.30;72.50
69382;DHT22;56560;50.692;12.844;2023-11-22T14:51:28;2.40;72.90
69382;DHT22;56560;50.692;12.844;2023-11-22T14:53:54;2.40;72.30
69382;DHT22;56560;50.692;12.844;2023-11-22T14:56:20;2.50;71.60
69382;DHT22;56560;50.692;12.844;2023-11-22T14:58:46;2.50;72.20
69382;DHT22;56560;50.692;12.844;2023-11-22T15:01:22;2.50;74.30
69382;DHT22;56560;50.692;12.844;2023-11-22T15:03:51;2.60;72.20
69382;DHT22;56560;50.692;12.844;2023-11-22T15:06:20;2.50;71.20
69382;DHT22;56560;50.692;12.844;2023-11-22T15:08:46;2.40;70.90
69382;DHT22;56560;50.692;12.844;2023-11-22T15:11:13;2.40;71.50
69382;DHT22;56560;50.692;12.844;2023-11-22T15:13:41;2.30;71.10
69382;DHT22;56560;50.692;12.844;2023-11-22T15:16:07;2.20;71.50
69382;DHT22;56560;50.692;12.844;2023-11-22T15:18:33;2.10;71.90
69382;DHT22;56560;50.692;12.844;2023-11-22T15:20:58;2.10;72.90
69382;DHT22;56560;50.692;12.844;2023-11-22T15:23:24;2.00;72.90
69382;DHT22;56560;50.692;12.844;2023-11-22T15:25:50;2.00;72.70
69382;DHT22;56560;50.692;12.844;2023-11-22T15:28:16;2.00;73.00
69382;DHT22;56560;50.692;12.844;2023-11-22T15:30:48;1.90;73.20